sensor_id;sensor_type;location;lat;lon;timestamp;P1;durP1;ratioP1;P2;durP2;ratioP2
10092;SDS011;5085;48.092;11.484;2022-08-23T00:00:31;3.40;;;2.93;;
10092;SDS011;5085;48.092;11.484;2022-08-23T00:02:57;3.53;;;3.23;;
10092;SDS011;5085;48.092;11.484;2022-08-23T00:05:22;4.40;;;3.00;;
10092;SDS011;5085;48.092;11.484;2022-08-23T00:07:48;2.80;;;2.60;;
10092;SDS011;5085;48.092;11.484;2022-08-23T00:10:14;3.10;;;2.80;;
10092;SDS011;5085;48.092;11.484;2022-08-23T00:12:40;3.57;;;2.90;;
10092;SDS011;5085;48.092;11.484;2022-08-23T00:15:06;3.23;;;2.93;;
10092;SDS011;5085;48.092;11.484;2022-08-23T00:17:31;3.30;;;3.00;;
10092;SDS011;5085;48.092;11.484;2022-08-23T00:19:56;5.40;;;3.70;;
10092;SDS011;5085;48.092;11.484;2022-08-23T00:22:22;3.27;;;2.97;;
10092;SDS011;5085;48.092;11.484;2022-08-23T00:24:47;3.37;;;3.10;;
10092;SDS011;5085;48.092;11.484;2022-08-23T00:27:14;3.03;;;2.73;;
10092;SDS011;5085;48.092;11.484;2022-08-23T00:29:44;3.87;;;3.07;;
10092;SDS011;5085;48.092;11.484;2022-08-23T00:32:12;2.80;;;2.60;;
10092;SDS011;5085;48.092;11.484;2022-08-23T00:34:38;3.37;;;3.07;;
10092;SDS011;5085;48.092;11.484;2022-08-23T00:37:04;2.93;;;2.67;;
10092;SDS011;5085;48.092;11.484;2022-08-23T00:39:29;3.00;;;2.80;;
10092;SDS011;5085;48.092;11.484;2022-08-23T00:41:55;3.30;;;3.00;;
10092;SDS011;5085;48.092;11.484;2022-08-23T00:44:23;3.20;;;2.90;;
10092;SDS011;5085;48.092;11.484;2022-08-23T00:47:09;4.20;;;3.13;;
10092;SDS011;5085;48.092;11.484;2022-08-23T00:50:00;4.10;;;3.23;;
10092;SDS011;5085;48.092;11.484;2022-08-23T00:52:29;3.10;;;2.90;;
10092;SDS011;5085;48.092;11.484;2022-08-23T00:54:55;3.30;;;3.00;;
10092;SDS011;5085;48.092;11.484;2022-08-23T00:57:22;4.77;;;3.30;;
10092;SDS011;5085;48.092;11.484;2022-08-23T00:59:47;3.33;;;3.07;;
10092;SDS011;5085;48.092;11.484;2022-08-23T01:02:13;3.27;;;3.00;;
10092;SDS011;5085;48.092;11.484;2022-08-23T01:04:40;3.63;;;3.33;;
10092;SDS011;5085;48.092;11.484;2022-08-23T01:07:28;3.90;;;3.40;;
10092;SDS011;5085;48.092;11.484;2022-08-23T01:09:56;4.77;;;3.13;;
10092;SDS011;5085;48.092;11.484;2022-08-23T01:12:32;3.93;;;3.20;;
10092;SDS011;5085;48.092;11.484;2022-08-23T01:15:04;3.70;;;3.40;;
10092;SDS011;5085;48.092;11.484;2022-08-23T01:17:41;3.30;;;3.00;;
10092;SDS011;5085;48.092;11.484;2022-08-23T01:20:10;4.63;;;3.33;;
10092;SDS011;5085;48.092;11.484;2022-08-23T01:22:39;4.10;;;3.70;;
10092;SDS011;5085;48.092;11.484;2022-08-23T01:25:07;6.30;;;3.80;;
10092;SDS011;5085;48.092;11.484;2022-08-23T01:27:33;4.90;;;3.80;;
10092;SDS011;5085;48.092;11.484;2022-08-23T01:29:59;4.23;;;3.83;;
10092;SDS011;5085;48.092;11.484;2022-08-23T01:32:25;4.00;;;3.70;;
10092;SDS011;5085;48.092;11.484;2022-08-23T01:34:50;4.60;;;4.20;;
10092;SDS011;5085;48.092;11.484;2022-08-23T01:37:15;4.10;;;3.70;;
10092;SDS011;5085;48.092;11.484;2022-08-23T01:39:42;4.43;;;4.03;;
10092;SDS011;5085;48.092;11.484;2022-08-23T01:42:07;4.63;;;4.23;;
10092;SDS011;5085;48.092;11.484;2022-08-23T01:44:33;3.90;;;3.60;;
10092;SDS011;5085;48.092;11.484;2022-08-23T01:46:58;6.20;;;3.90;;
10092;SDS011;5085;48.092;11.484;2022-08-23T01:49:23;4.03;;;3.73;;
10092;SDS011;5085;48.092;11.484;2022-08-23T01:51:49;3.97;;;3.57;;
10092;SDS011;5085;48.092;11.484;2022-08-23T01:54:14;4.30;;;3.97;;
10092;SDS011;5085;48.092;11.484;2022-08-23T01:56:39;3.80;;;3.40;;
10092;SDS011;5085;48.092;11.484;2022-08-23T01:59:06;3.70;;;3.40;;
10092;SDS011;5085;48.092;11.484;2022-08-23T02:01:31;3.87;;;3.57;;
10092;SDS011;5085;48.092;11.484;2022-08-23T02:03:56;4.40;;;3.40;;
10092;SDS011;5085;48.092;11.484;2022-08-23T02:06:21;4.63;;;4.20;;
10092;SDS011;5085;48.092;11.484;2022-08-23T02:08:47;4.43;;;4.03;;
10092;SDS011;5085;48.092;11.484;2022-08-23T02:11:29;4.20;;;3.80;;
10092;SDS011;5085;48.092;11.484;2022-08-23T02:13:57;4.50;;;4.10;;
10092;SDS011;5085;48.092;11.484;2022-08-23T02:18:48;4.43;;;4.10;;
10092;SDS011;5085;48.092;11.484;2022-08-23T02:21:14;3.67;;;3.37;;
10092;SDS011;5085;48.092;11.484;2022-08-23T02:23:40;4.47;;;4.03;;
10092;SDS011;5085;48.092;11.484;2022-08-23T02:26:05;5.10;;;3.87;;
10092;SDS011;5085;48.092;11.484;2022-08-23T02:28:31;4.20;;;3.83;;
10092;SDS011;5085;48.092;11.484;2022-08-23T02:30:56;4.33;;;3.90;;
10092;SDS011;5085;48.092;11.484;2022-08-23T02:33:21;3.70;;;3.40;;
10092;SDS011;5085;48.092;11.484;2022-08-23T02:35:46;4.17;;;3.30;;
10092;SDS011;5085;48.092;11.484;2022-08-23T02:38:12;4.83;;;3.67;;
10092;SDS011;5085;48.092;11.484;2022-08-23T02:40:38;4.97;;;3.57;;
10092;SDS011;5085;48.092;11.484;2022-08-23T02:43:04;5.23;;;3.80;;
10092;SDS011;5085;48.092;11.484;2022-08-23T02:45:31;4.50;;;4.10;;
10092;SDS011;5085;48.092;11.484;2022-08-23T02:47:56;6.83;;;4.40;;
10092;SDS011;5085;48.092;11.484;2022-08-23T02:50:21;4.53;;;4.13;;
10092;SDS011;5085;48.092;11.484;2022-08-23T02:52:47;3.97;;;3.57;;
10092;SDS011;5085;48.092;11.484;2022-08-23T02:55:12;4.33;;;3.67;;
10092;SDS011;5085;48.092;11.484;2022-08-23T02:57:37;4.83;;;3.97;;
10092;SDS011;5085;48.092;11.484;2022-08-23T03:00:06;4.33;;;3.83;;
10092;SDS011;5085;48.092;11.484;2022-08-23T03:02:33;4.57;;;4.17;;
10092;SDS011;5085;48.092;11.484;2022-08-23T03:04:59;5.90;;;4.33;;
10092;SDS011;5085;48.092;11.484;2022-08-23T03:07:24;4.33;;;3.93;;
10092;SDS011;5085;48.092;11.484;2022-08-23T03:09:49;3.90;;;3.60;;
10092;SDS011;5085;48.092;11.484;2022-08-23T03:12:15;5.17;;;4.30;;
10092;SDS011;5085;48.092;11.484;2022-08-23T03:14:40;4.70;;;4.30;;
10092;SDS011;5085;48.092;11.484;2022-08-23T03:17:05;4.10;;;3.60;;
10092;SDS011;5085;48.092;11.484;2022-08-23T03:19:32;5.03;;;4.43;;
10092;SDS011;5085;48.092;11.484;2022-08-23T03:21:57;5.57;;;4.33;;
10092;SDS011;5085;48.092;11.484;2022-08-23T03:24:22;5.13;;;4.40;;
10092;SDS011;5085;48.092;11.484;2022-08-23T03:26:47;4.77;;;4.37;;
10092;SDS011;5085;48.092;11.484;2022-08-23T03:29:13;4.57;;;3.93;;
10092;SDS011;5085;48.092;11.484;2022-08-23T03:31:38;4.80;;;4.40;;
10092;SDS011;5085;48.092;11.484;2022-08-23T03:34:04;4.80;;;4.40;;
10092;SDS011;5085;48.092;11.484;2022-08-23T03:36:30;5.10;;;4.67;;
10092;SDS011;5085;48.092;11.484;2022-08-23T03:38:55;4.50;;;4.10;;
10092;SDS011;5085;48.092;11.484;2022-08-23T03:41:20;4.60;;;4.20;;
10092;SDS011;5085;48.092;11.484;2022-08-23T03:43:46;4.43;;;4.03;;
10092;SDS011;5085;48.092;11.484;2022-08-23T03:46:11;5.63;;;4.57;;
10092;SDS011;5085;48.092;11.484;2022-08-23T03:48:47;5.93;;;4.23;;
10092;SDS011;5085;48.092;11.484;2022-08-23T03:51:13;6.13;;;4.40;;
10092;SDS011;5085;48.092;11.484;2022-08-23T03:53:39;6.60;;;4.30;;
10092;SDS011;5085;48.092;11.484;2022-08-23T03:56:04;4.73;;;4.33;;
10092;SDS011;5085;48.092;11.484;2022-08-23T03:58:30;4.30;;;3.83;;
10092;SDS011;5085;48.092;11.484;2022-08-23T04:00:55;4.47;;;4.07;;
10092;SDS011;5085;48.092;11.484;2022-08-23T04:03:21;4.17;;;3.77;;
10092;SDS011;5085;48.092;11.484;2022-08-23T04:05:46;6.07;;;4.43;;
10092;SDS011;5085;48.092;11.484;2022-08-23T04:08:12;4.90;;;3.77;;
10092;SDS011;5085;48.092;11.484;2022-08-23T04:10:38;3.80;;;3.50;;
10092;SDS011;5085;48.092;11.484;2022-08-23T04:13:03;4.17;;;3.43;;
10092;SDS011;5085;48.092;11.484;2022-08-23T04:15:28;4.60;;;3.83;;
10092;SDS011;5085;48.092;11.484;2022-08-23T04:17:55;4.23;;;3.83;;
10092;SDS011;5085;48.092;11.484;2022-08-23T04:20:22;4.37;;;3.93;;
10092;SDS011;5085;48.092;11.484;2022-08-23T04:22:50;4.57;;;3.90;;
10092;SDS011;5085;48.092;11.484;2022-08-23T04:25:15;4.73;;;4.33;;
10092;SDS011;5085;48.092;11.484;2022-08-23T04:27:40;4.77;;;4.27;;
10092;SDS011;5085;48.092;11.484;2022-08-23T04:30:06;6.17;;;4.37;;
10092;SDS011;5085;48.092;11.484;2022-08-23T04:32:31;4.90;;;4.23;;
10092;SDS011;5085;48.092;11.484;2022-08-23T04:34:57;4.40;;;4.00;;
10092;SDS011;5085;48.092;11.484;2022-08-23T04:37:22;4.67;;;4.23;;
10092;SDS011;5085;48.092;11.484;2022-08-23T04:39:47;4.37;;;3.97;;
10092;SDS011;5085;48.092;11.484;2022-08-23T04:42:31;5.80;;;4.70;;
10092;SDS011;5085;48.092;11.484;2022-08-23T04:44:57;5.07;;;4.67;;
10092;SDS011;5085;48.092;11.484;2022-08-23T04:47:22;6.10;;;4.00;;
10092;SDS011;5085;48.092;11.484;2022-08-23T04:49:48;4.23;;;3.83;;
10092;SDS011;5085;48.092;11.484;2022-08-23T04:52:13;4.67;;;4.27;;
10092;SDS011;5085;48.092;11.484;2022-08-23T04:54:38;4.50;;;4.10;;
10092;SDS011;5085;48.092;11.484;2022-08-23T04:57:04;5.40;;;4.27;;
10092;SDS011;5085;48.092;11.484;2022-08-23T04:59:29;4.90;;;4.40;;
10092;SDS011;5085;48.092;11.484;2022-08-23T05:01:54;4.50;;;4.10;;
10092;SDS011;5085;48.092;11.484;2022-08-23T05:04:20;4.63;;;4.10;;
10092;SDS011;5085;48.092;11.484;2022-08-23T05:06:45;6.57;;;5.03;;
10092;SDS011;5085;48.092;11.484;2022-08-23T05:09:10;5.43;;;4.17;;
10092;SDS011;5085;48.092;11.484;2022-08-23T05:11:36;4.73;;;4.33;;
10092;SDS011;5085;48.092;11.484;2022-08-23T05:14:01;4.10;;;3.50;;
10092;SDS011;5085;48.092;11.484;2022-08-23T05:16:26;4.30;;;3.90;;
10092;SDS011;5085;48.092;11.484;2022-08-23T05:18:51;3.53;;;3.23;;
10092;SDS011;5085;48.092;11.484;2022-08-23T05:21:18;3.73;;;3.43;;
10092;SDS011;5085;48.092;11.484;2022-08-23T05:23:43;3.90;;;3.53;;
10092;SDS011;5085;48.092;11.484;2022-08-23T05:26:08;3.87;;;3.57;;
10092;SDS011;5085;48.092;11.484;2022-08-23T05:28:35;3.87;;;3.47;;
10092;SDS011;5085;48.092;11.484;2022-08-23T05:31:08;3.47;;;3.17;;
10092;SDS011;5085;48.092;11.484;2022-08-23T05:33:34;3.97;;;3.63;;
10092;SDS011;5085;48.092;11.484;2022-08-23T05:36:00;5.23;;;3.33;;
10092;SDS011;5085;48.092;11.484;2022-08-23T05:38:26;3.88;;;3.40;;
10092;SDS011;5085;48.092;11.484;2022-08-23T05:40:52;4.53;;;4.07;;
10092;SDS011;5085;48.092;11.484;2022-08-23T05:43:18;4.43;;;3.80;;
10092;SDS011;5085;48.092;11.484;2022-08-23T05:45:43;3.90;;;3.60;;
10092;SDS011;5085;48.092;11.484;2022-08-23T05:48:08;4.93;;;3.70;;
10092;SDS011;5085;48.092;11.484;2022-08-23T05:50:37;3.92;;;3.63;;
10092;SDS011;5085;48.092;11.484;2022-08-23T05:53:03;4.40;;;4.00;;
10092;SDS011;5085;48.092;11.484;2022-08-23T05:55:29;3.55;;;3.35;;
10092;SDS011;5085;48.092;11.484;2022-08-23T05:57:54;4.23;;;3.83;;
10092;SDS011;5085;48.092;11.484;2022-08-23T06:00:20;4.10;;;3.67;;
10092;SDS011;5085;48.092;11.484;2022-08-23T06:02:45;4.93;;;3.57;;
10092;SDS011;5085;48.092;11.484;2022-08-23T06:05:11;3.87;;;3.57;;
10092;SDS011;5085;48.092;11.484;2022-08-23T06:07:37;3.95;;;3.55;;
10092;SDS011;5085;48.092;11.484;2022-08-23T06:10:03;3.78;;;3.45;;
10092;SDS011;5085;48.092;11.484;2022-08-23T06:12:30;4.40;;;3.45;;
10092;SDS011;5085;48.092;11.484;2022-08-23T06:14:55;6.03;;;3.47;;
10092;SDS011;5085;48.092;11.484;2022-08-23T06:17:21;7.18;;;3.25;;
10092;SDS011;5085;48.092;11.484;2022-08-23T06:19:47;4.28;;;3.30;;
10092;SDS011;5085;48.092;11.484;2022-08-23T06:22:12;3.20;;;2.95;;
10092;SDS011;5085;48.092;11.484;2022-08-23T06:24:37;3.78;;;3.38;;
10092;SDS011;5085;48.092;11.484;2022-08-23T06:27:02;3.45;;;3.15;;
10092;SDS011;5085;48.092;11.484;2022-08-23T06:29:27;4.55;;;2.85;;
10092;SDS011;5085;48.092;11.484;2022-08-23T06:31:53;3.75;;;3.15;;
10092;SDS011;5085;48.092;11.484;2022-08-23T06:34:22;3.78;;;3.00;;
10092;SDS011;5085;48.092;11.484;2022-08-23T06:36:50;3.22;;;2.92;;
10092;SDS011;5085;48.092;11.484;2022-08-23T06:39:16;3.67;;;2.97;;
10092;SDS011;5085;48.092;11.484;2022-08-23T06:41:42;2.90;;;2.60;;
10092;SDS011;5085;48.092;11.484;2022-08-23T06:44:08;3.10;;;2.90;;
10092;SDS011;5085;48.092;11.484;2022-08-23T06:46:34;2.70;;;2.50;;
10092;SDS011;5085;48.092;11.484;2022-08-23T06:48:59;3.03;;;2.80;;
10092;SDS011;5085;48.092;11.484;2022-08-23T06:53:53;3.45;;;2.53;;
10092;SDS011;5085;48.092;11.484;2022-08-23T06:56:19;2.70;;;2.50;;
10092;SDS011;5085;48.092;11.484;2022-08-23T06:58:45;2.88;;;2.53;;
10092;SDS011;5085;48.092;11.484;2022-08-23T07:01:20;2.65;;;2.45;;
10092;SDS011;5085;48.092;11.484;2022-08-23T07:03:51;2.70;;;2.47;;
10092;SDS011;5085;48.092;11.484;2022-08-23T07:06:17;2.97;;;2.40;;
10092;SDS011;5085;48.092;11.484;2022-08-23T07:08:42;2.83;;;2.60;;
10092;SDS011;5085;48.092;11.484;2022-08-23T07:11:07;2.30;;;2.10;;
10092;SDS011;5085;48.092;11.484;2022-08-23T07:13:32;2.47;;;2.10;;
10092;SDS011;5085;48.092;11.484;2022-08-23T07:15:58;2.40;;;2.20;;
10092;SDS011;5085;48.092;11.484;2022-08-23T07:18:24;1.95;;;1.85;;
10092;SDS011;5085;48.092;11.484;2022-08-23T07:20:53;2.70;;;2.08;;
10092;SDS011;5085;48.092;11.484;2022-08-23T07:23:19;2.47;;;2.25;;
10092;SDS011;5085;48.092;11.484;2022-08-23T07:25:44;2.30;;;2.10;;
10092;SDS011;5085;48.092;11.484;2022-08-23T07:28:09;3.08;;;1.90;;
10092;SDS011;5085;48.092;11.484;2022-08-23T07:30:36;2.40;;;1.95;;
10092;SDS011;5085;48.092;11.484;2022-08-23T07:33:01;2.05;;;1.77;;
10092;SDS011;5085;48.092;11.484;2022-08-23T07:35:26;2.15;;;1.95;;
10092;SDS011;5085;48.092;11.484;2022-08-23T07:37:52;2.10;;;2.00;;
10092;SDS011;5085;48.092;11.484;2022-08-23T07:40:17;4.75;;;2.30;;
10092;SDS011;5085;48.092;11.484;2022-08-23T07:42:43;2.35;;;2.10;;
10092;SDS011;5085;48.092;11.484;2022-08-23T07:45:08;3.47;;;2.25;;
10092;SDS011;5085;48.092;11.484;2022-08-23T07:47:34;2.17;;;1.75;;
10092;SDS011;5085;48.092;11.484;2022-08-23T07:49:59;2.17;;;1.90;;
10092;SDS011;5085;48.092;11.484;2022-08-23T07:52:24;3.85;;;1.98;;
10092;SDS011;5085;48.092;11.484;2022-08-23T07:54:50;2.33;;;2.00;;
10092;SDS011;5085;48.092;11.484;2022-08-23T07:57:15;1.85;;;1.75;;
10092;SDS011;5085;48.092;11.484;2022-08-23T07:59:40;2.13;;;1.55;;
10092;SDS011;5085;48.092;11.484;2022-08-23T08:02:06;1.83;;;1.70;;
10092;SDS011;5085;48.092;11.484;2022-08-23T08:04:31;2.08;;;1.90;;
10092;SDS011;5085;48.092;11.484;2022-08-23T08:06:56;3.20;;;1.98;;
10092;SDS011;5085;48.092;11.484;2022-08-23T08:09:23;1.70;;;1.60;;
10092;SDS011;5085;48.092;11.484;2022-08-23T08:11:48;2.22;;;1.85;;
10092;SDS011;5085;48.092;11.484;2022-08-23T08:14:14;1.70;;;1.60;;
10092;SDS011;5085;48.092;11.484;2022-08-23T08:16:41;2.90;;;2.00;;
10092;SDS011;5085;48.092;11.484;2022-08-23T08:19:07;2.10;;;1.90;;
10092;SDS011;5085;48.092;11.484;2022-08-23T08:21:33;2.22;;;1.70;;
10092;SDS011;5085;48.092;11.484;2022-08-23T08:23:58;1.50;;;1.40;;
10092;SDS011;5085;48.092;11.484;2022-08-23T08:26:24;3.20;;;1.70;;
10092;SDS011;5085;48.092;11.484;2022-08-23T08:28:49;3.30;;;1.60;;
10092;SDS011;5085;48.092;11.484;2022-08-23T08:31:14;1.60;;;1.50;;
10092;SDS011;5085;48.092;11.484;2022-08-23T08:33:40;1.95;;;1.70;;
10092;SDS011;5085;48.092;11.484;2022-08-23T08:36:05;2.10;;;1.90;;
10092;SDS011;5085;48.092;11.484;2022-08-23T08:38:31;1.88;;;1.60;;
10092;SDS011;5085;48.092;11.484;2022-08-23T08:46:22;1.67;;;1.58;;
10092;SDS011;5085;48.092;11.484;2022-08-23T08:48:49;1.73;;;1.40;;
10092;SDS011;5085;48.092;11.484;2022-08-23T08:54:02;1.73;;;1.40;;
10092;SDS011;5085;48.092;11.484;2022-08-23T08:56:31;1.77;;;1.58;;
10092;SDS011;5085;48.092;11.484;2022-08-23T08:58:58;13.45;;;3.20;;
10092;SDS011;5085;48.092;11.484;2022-08-23T09:01:24;3.17;;;1.73;;
10092;SDS011;5085;48.092;11.484;2022-08-23T09:03:50;6.30;;;2.95;;
10092;SDS011;5085;48.092;11.484;2022-08-23T09:09:20;1.80;;;1.27;;
10092;SDS011;5085;48.092;11.484;2022-08-23T09:17:08;2.72;;;1.50;;
10092;SDS011;5085;48.092;11.484;2022-08-23T09:19:39;2.35;;;1.55;;
10092;SDS011;5085;48.092;11.484;2022-08-23T09:22:10;2.08;;;1.60;;
10092;SDS011;5085;48.092;11.484;2022-08-23T09:24:37;2.25;;;1.45;;
10092;SDS011;5085;48.092;11.484;2022-08-23T09:27:03;2.78;;;1.60;;
10092;SDS011;5085;48.092;11.484;2022-08-23T09:29:29;1.52;;;1.42;;
10092;SDS011;5085;48.092;11.484;2022-08-23T09:31:56;4.15;;;1.40;;
10092;SDS011;5085;48.092;11.484;2022-08-23T09:36:56;2.50;;;1.40;;
10092;SDS011;5085;48.092;11.484;2022-08-23T09:39:30;1.90;;;1.45;;
10092;SDS011;5085;48.092;11.484;2022-08-23T09:41:56;3.88;;;1.95;;
10092;SDS011;5085;48.092;11.484;2022-08-23T09:44:31;3.60;;;1.85;;
10092;SDS011;5085;48.092;11.484;2022-08-23T09:47:04;1.55;;;1.45;;
10092;SDS011;5085;48.092;11.484;2022-08-23T09:49:29;1.55;;;1.40;;
10092;SDS011;5085;48.092;11.484;2022-08-23T09:51:55;2.53;;;1.50;;
10092;SDS011;5085;48.092;11.484;2022-08-23T09:54:25;1.52;;;1.40;;
10092;SDS011;5085;48.092;11.484;2022-08-23T09:56:54;2.30;;;1.40;;
10092;SDS011;5085;48.092;11.484;2022-08-23T09:59:26;3.45;;;1.80;;
10092;SDS011;5085;48.092;11.484;2022-08-23T10:01:55;2.13;;;1.40;;
10092;SDS011;5085;48.092;11.484;2022-08-23T10:06:47;2.55;;;1.65;;
10092;SDS011;5085;48.092;11.484;2022-08-23T10:09:23;2.00;;;1.90;;
10092;SDS011;5085;48.092;11.484;2022-08-23T10:11:49;2.55;;;1.65;;
10092;SDS011;5085;48.092;11.484;2022-08-23T10:14:15;2.97;;;1.85;;
10092;SDS011;5085;48.092;11.484;2022-08-23T10:19:09;2.38;;;1.45;;
10092;SDS011;5085;48.092;11.484;2022-08-23T10:27:06;1.75;;;1.60;;
10092;SDS011;5085;48.092;11.484;2022-08-23T10:29:59;2.60;;;1.80;;
10092;SDS011;5085;48.092;11.484;2022-08-23T10:33:15;2.08;;;1.55;;
10092;SDS011;5085;48.092;11.484;2022-08-23T10:40:07;1.70;;;1.48;;
10092;SDS011;5085;48.092;11.484;2022-08-23T10:45:15;3.17;;;1.70;;
10092;SDS011;5085;48.092;11.484;2022-08-23T10:47:49;2.80;;;1.50;;
10092;SDS011;5085;48.092;11.484;2022-08-23T10:50:18;2.33;;;1.88;;
10092;SDS011;5085;48.092;11.484;2022-08-23T10:52:48;1.48;;;1.30;;
10092;SDS011;5085;48.092;11.484;2022-08-23T10:55:17;2.08;;;1.50;;
10092;SDS011;5085;48.092;11.484;2022-08-23T10:57:58;1.95;;;1.33;;
10092;SDS011;5085;48.092;11.484;2022-08-23T11:00:24;1.80;;;1.15;;
10092;SDS011;5085;48.092;11.484;2022-08-23T11:02:56;2.42;;;1.40;;
10092;SDS011;5085;48.092;11.484;2022-08-23T11:05:27;1.60;;;1.50;;
10092;SDS011;5085;48.092;11.484;2022-08-23T11:08:04;2.45;;;1.35;;
10092;SDS011;5085;48.092;11.484;2022-08-23T11:13:00;1.90;;;1.40;;
10092;SDS011;5085;48.092;11.484;2022-08-23T11:15:27;1.65;;;1.50;;
10092;SDS011;5085;48.092;11.484;2022-08-23T11:17:59;2.17;;;1.60;;
10092;SDS011;5085;48.092;11.484;2022-08-23T11:23:10;1.80;;;1.30;;
10092;SDS011;5085;48.092;11.484;2022-08-23T11:28:44;1.30;;;1.20;;
10092;SDS011;5085;48.092;11.484;2022-08-23T11:30:50;1.55;;;1.45;;
10092;SDS011;5085;48.092;11.484;2022-08-23T11:33:25;1.65;;;1.48;;
10092;SDS011;5085;48.092;11.484;2022-08-23T11:36:13;2.75;;;1.42;;
10092;SDS011;5085;48.092;11.484;2022-08-23T11:43:38;1.33;;;1.23;;
10092;SDS011;5085;48.092;11.484;2022-08-23T11:48:39;1.77;;;1.35;;
10092;SDS011;5085;48.092;11.484;2022-08-23T11:53:41;2.27;;;1.47;;
10092;SDS011;5085;48.092;11.484;2022-08-23T11:56:20;1.60;;;1.50;;
10092;SDS011;5085;48.092;11.484;2022-08-23T11:58:59;1.85;;;1.48;;
10092;SDS011;5085;48.092;11.484;2022-08-23T12:01:28;1.77;;;1.40;;
10092;SDS011;5085;48.092;11.484;2022-08-23T12:04:00;2.95;;;1.75;;
10092;SDS011;5085;48.092;11.484;2022-08-23T12:06:41;2.15;;;1.40;;
10092;SDS011;5085;48.092;11.484;2022-08-23T12:22:10;1.23;;;1.17;;
10092;SDS011;5085;48.092;11.484;2022-08-23T12:24:41;2.00;;;1.50;;
10092;SDS011;5085;48.092;11.484;2022-08-23T12:39:52;2.57;;;1.40;;
10092;SDS011;5085;48.092;11.484;2022-08-23T12:42:24;1.40;;;1.35;;
10092;SDS011;5085;48.092;11.484;2022-08-23T12:44:58;1.98;;;1.50;;
10092;SDS011;5085;48.092;11.484;2022-08-23T12:47:23;1.70;;;1.40;;
10092;SDS011;5085;48.092;11.484;2022-08-23T12:49:53;2.35;;;1.45;;
10092;SDS011;5085;48.092;11.484;2022-08-23T12:52:22;1.65;;;1.40;;
10092;SDS011;5085;48.092;11.484;2022-08-23T12:54:49;1.77;;;1.58;;
10092;SDS011;5085;48.092;11.484;2022-08-23T12:57:18;1.88;;;1.10;;
10092;SDS011;5085;48.092;11.484;2022-08-23T12:59:47;1.83;;;1.33;;
10092;SDS011;5085;48.092;11.484;2022-08-23T13:02:23;1.52;;;1.42;;
10092;SDS011;5085;48.092;11.484;2022-08-23T13:04:49;1.60;;;1.35;;
10092;SDS011;5085;48.092;11.484;2022-08-23T13:07:17;1.65;;;1.50;;
10092;SDS011;5085;48.092;11.484;2022-08-23T13:09:43;1.48;;;1.30;;
10092;SDS011;5085;48.092;11.484;2022-08-23T13:12:09;2.10;;;1.30;;
10092;SDS011;5085;48.092;11.484;2022-08-23T13:19:50;1.65;;;1.30;;
10092;SDS011;5085;48.092;11.484;2022-08-23T13:24:42;1.50;;;1.33;;
10092;SDS011;5085;48.092;11.484;2022-08-23T13:29:58;1.50;;;1.40;;
10092;SDS011;5085;48.092;11.484;2022-08-23T13:34:49;1.43;;;1.30;;
10092;SDS011;5085;48.092;11.484;2022-08-23T13:39:46;1.40;;;1.30;;
10092;SDS011;5085;48.092;11.484;2022-08-23T13:42:12;2.20;;;1.20;;
10092;SDS011;5085;48.092;11.484;2022-08-23T13:44:38;1.27;;;1.20;;
10092;SDS011;5085;48.092;11.484;2022-08-23T13:47:04;1.48;;;1.33;;
10092;SDS011;5085;48.092;11.484;2022-08-23T13:49:30;1.70;;;1.40;;
10092;SDS011;5085;48.092;11.484;2022-08-23T13:54:26;1.27;;;1.17;;
10092;SDS011;5085;48.092;11.484;2022-08-23T13:57:36;1.52;;;1.20;;
10092;SDS011;5085;48.092;11.484;2022-08-23T13:59:40;1.70;;;1.52;;
10092;SDS011;5085;48.092;11.484;2022-08-23T14:02:11;3.38;;;1.20;;
10092;SDS011;5085;48.092;11.484;2022-08-23T14:04:38;1.58;;;1.20;;
10092;SDS011;5085;48.092;11.484;2022-08-23T14:07:03;1.20;;;1.13;;
10092;SDS011;5085;48.092;11.484;2022-08-23T14:09:29;1.60;;;1.50;;
10092;SDS011;5085;48.092;11.484;2022-08-23T14:11:56;1.98;;;1.20;;
10092;SDS011;5085;48.092;11.484;2022-08-23T14:14:22;1.55;;;1.33;;
10092;SDS011;5085;48.092;11.484;2022-08-23T14:16:47;1.50;;;1.30;;
10092;SDS011;5085;48.092;11.484;2022-08-23T14:19:13;1.80;;;1.33;;
10092;SDS011;5085;48.092;11.484;2022-08-23T14:21:38;4.80;;;1.60;;
10092;SDS011;5085;48.092;11.484;2022-08-23T14:24:03;1.77;;;1.50;;
10092;SDS011;5085;48.092;11.484;2022-08-23T14:26:28;2.95;;;1.30;;
10092;SDS011;5085;48.092;11.484;2022-08-23T14:28:54;3.90;;;1.30;;
10092;SDS011;5085;48.092;11.484;2022-08-23T14:31:19;1.30;;;1.20;;
10092;SDS011;5085;48.092;11.484;2022-08-23T14:33:45;2.15;;;1.40;;
10092;SDS011;5085;48.092;11.484;2022-08-23T14:36:10;1.73;;;1.40;;
10092;SDS011;5085;48.092;11.484;2022-08-23T14:38:36;2.15;;;1.15;;
10092;SDS011;5085;48.092;11.484;2022-08-23T14:41:02;1.63;;;1.50;;
10092;SDS011;5085;48.092;11.484;2022-08-23T14:43:29;1.30;;;1.20;;
10092;SDS011;5085;48.092;11.484;2022-08-23T14:45:55;1.38;;;1.08;;
10092;SDS011;5085;48.092;11.484;2022-08-23T14:48:21;1.85;;;1.30;;
10092;SDS011;5085;48.092;11.484;2022-08-23T14:50:47;1.42;;;1.33;;
10092;SDS011;5085;48.092;11.484;2022-08-23T14:53:13;1.30;;;1.20;;
10092;SDS011;5085;48.092;11.484;2022-08-23T14:55:39;1.20;;;1.10;;
10092;SDS011;5085;48.092;11.484;2022-08-23T14:58:04;2.08;;;1.30;;
10092;SDS011;5085;48.092;11.484;2022-08-23T15:00:30;2.00;;;1.40;;
10092;SDS011;5085;48.092;11.484;2022-08-23T15:02:56;1.30;;;1.20;;
10092;SDS011;5085;48.092;11.484;2022-08-23T15:05:21;1.60;;;1.33;;
10092;SDS011;5085;48.092;11.484;2022-08-23T15:07:47;1.60;;;1.40;;
10092;SDS011;5085;48.092;11.484;2022-08-23T15:10:12;1.88;;;1.35;;
10092;SDS011;5085;48.092;11.484;2022-08-23T15:12:38;3.42;;;1.38;;
10092;SDS011;5085;48.092;11.484;2022-08-23T15:15:04;1.73;;;1.25;;
10092;SDS011;5085;48.092;11.484;2022-08-23T15:17:30;1.10;;;1.00;;
10092;SDS011;5085;48.092;11.484;2022-08-23T15:19:58;3.33;;;1.67;;
10092;SDS011;5085;48.092;11.484;2022-08-23T15:22:24;2.17;;;1.23;;
10092;SDS011;5085;48.092;11.484;2022-08-23T15:24:49;3.17;;;1.27;;
10092;SDS011;5085;48.092;11.484;2022-08-23T15:27:14;1.65;;;1.30;;
10092;SDS011;5085;48.092;11.484;2022-08-23T15:29:40;3.45;;;1.30;;
10092;SDS011;5085;48.092;11.484;2022-08-23T15:32:05;1.42;;;1.30;;
10092;SDS011;5085;48.092;11.484;2022-08-23T15:34:31;1.50;;;1.40;;
10092;SDS011;5085;48.092;11.484;2022-08-23T15:36:56;2.35;;;1.40;;
10092;SDS011;5085;48.092;11.484;2022-08-23T15:39:21;2.03;;;1.50;;
10092;SDS011;5085;48.092;11.484;2022-08-23T15:41:46;2.13;;;1.30;;
10092;SDS011;5085;48.092;11.484;2022-08-23T15:44:11;1.77;;;1.48;;
10092;SDS011;5085;48.092;11.484;2022-08-23T15:46:37;2.85;;;1.20;;
10092;SDS011;5085;48.092;11.484;2022-08-23T15:49:04;3.00;;;1.40;;
10092;SDS011;5085;48.092;11.484;2022-08-23T15:51:30;1.50;;;1.40;;
10092;SDS011;5085;48.092;11.484;2022-08-23T15:53:55;1.40;;;1.20;;
10092;SDS011;5085;48.092;11.484;2022-08-23T15:56:22;1.60;;;1.20;;
10092;SDS011;5085;48.092;11.484;2022-08-23T15:58:48;2.63;;;1.58;;
10092;SDS011;5085;48.092;11.484;2022-08-23T16:01:16;1.42;;;1.30;;
10092;SDS011;5085;48.092;11.484;2022-08-23T16:03:42;1.70;;;1.50;;
10092;SDS011;5085;48.092;11.484;2022-08-23T16:06:09;1.35;;;1.25;;
10092;SDS011;5085;48.092;11.484;2022-08-23T16:08:37;1.70;;;1.50;;
10092;SDS011;5085;48.092;11.484;2022-08-23T16:11:03;2.40;;;1.50;;
10092;SDS011;5085;48.092;11.484;2022-08-23T16:13:33;1.83;;;1.30;;
10092;SDS011;5085;48.092;11.484;2022-08-23T16:15:58;3.08;;;1.20;;
10092;SDS011;5085;48.092;11.484;2022-08-23T16:18:24;1.42;;;1.33;;
10092;SDS011;5085;48.092;11.484;2022-08-23T16:20:49;1.70;;;1.30;;
10092;SDS011;5085;48.092;11.484;2022-08-23T16:23:14;2.28;;;1.60;;
10092;SDS011;5085;48.092;11.484;2022-08-23T16:25:40;2.50;;;1.40;;
10092;SDS011;5085;48.092;11.484;2022-08-23T16:28:05;1.83;;;1.35;;
10092;SDS011;5085;48.092;11.484;2022-08-23T16:30:32;1.55;;;1.40;;